This is the latest recevied weather packets stored in our database for station/object VU3KEB-13. If no packets are shown the sender has not sent any weather packets the latest 10 day(s).
| Time | Temp. | Humidity | Pressure | Rain* | Wind** | Luminosity | Snow |
|---|---|---|---|---|---|---|---|
| 1788603084 | 29.44° C | 50% | 1022.3 hPa | - | - | - | - |
| 1788601866 | 29.44° C | 50% | 1022.3 hPa | - | - | - | - |
| 1788600649 | 29.44° C | 50% | 1022.3 hPa | - | - | - | - |
| 1788599429 | 30° C | 49% | 1022.7 hPa | - | - | - | - |
| 1788598209 | 30° C | 49% | 1022.7 hPa | - | - | - | - |
| 1788595792 | 30° C | 48% | 1023.5 hPa | - | - | - | - |
| 1788594575 | 30° C | 48% | 1023.5 hPa | - | - | - | - |
| 1788593357 | 30° C | 48% | 1023.5 hPa | - | - | - | - |
| 1788592142 | 29.44° C | 48% | 1024.5 hPa | - | - | - | - |
| 1788590925 | 29.44° C | 49% | 1024.8 hPa | - | - | - | - |
| 1788589709 | 28.89° C | 49% | 1024.8 hPa | - | - | - | - |
| 1788587277 | 28.33° C | 53% | 1025.4 hPa | - | - | - | - |
| 1788524976 | 26.67° C | 76% | 1021.6 hPa | - | - | - | - |
| 1788522541 | 27.22° C | 66% | 1021.4 hPa | - | - | - | - |
| 1788517704 | 26.11° C | 71% | 1021.3 hPa | - | - | - | - |
| 1788516488 | 26.67° C | 76% | 1021.1 hPa | - | - | - | - |
| 1788515266 | 27.22° C | 76% | 1021.1 hPa | - | - | - | - |
| 1788508026 | 28.89° C | 59% | 1022.5 hPa | - | - | - | - |
| 1788506804 | 28.89° C | 59% | 1022.9 hPa | - | - | - | - |
| 1788505587 | 28.89° C | 56% | 1023.8 hPa | - | - | - | - |
| 1788501969 | 28.33° C | 59% | 1024.4 hPa | - | - | - | - |
| 1788499539 | 26.67° C | 59% | 1024.4 hPa | - | - | - | - |
| 1788498321 | 26.67° C | 65% | 1024.7 hPa | - | - | - | - |
| 1788497097 | 25.56° C | 65% | 1024.7 hPa | - | - | - | - |
| 1788495863 | 25.56° C | 65% | 1024.7 hPa | - | - | - | - |
* Rain since midnight (hover to see other rain measurements)
** Current wind speed in m/s (hover to see current wind gust speed)